Impacts TAF Board
For situational awareness. Not to be used for flight planning purposes.
IDs:

KPIT - Pittsburgh Intl, PA, US

Issued at 0305 UTC 03 Jul 2022
Updated at 0458 UTC 03 Jul 2022
Potential Impact None Slight Moderate High
Time0451Z 03/05Z 03/06Z 03/07Z 03/08Z 03/09Z 03/10Z 03/11Z 03/12Z 03/13Z 03/14Z 03/15Z 03/16Z 03/17Z>>
Type OBS PRVL PRVL PRVL PRVL PRVL PRVL PRVL PRVL PRVL PRVL PRVL PRVL PRVL
VIS 10 >6 >6 >6 >6 >6 >6 >6 >6 >6 >6 >6 >6 >6
CIG 180 -- -- -- -- -- -- -- -- -- -- -- -- --
Cover OVC SCT SCT SCT SCT SCT SCT SCT SCT SCT SCT SCT SCT SCT
FltCat VFR VFR VFR VFR VFR VFR VFR VFR VFR VFR VFR VFR VFR VFR
WX -- -- -- -- -- -- -- -- -- -- -- -- -- --
WDir 350 20 20 20 20 20 20 20 20 20 20 20 20 20
WSpd 3 5 5 5 5 5 5 5 5 5 5 5 5 5
WGst -- -- -- -- -- -- -- -- -- -- -- -- -- --
WSHgt -- -- -- -- -- -- -- -- -- -- -- -- -- --
WSDir -- -- -- -- -- -- -- -- -- -- -- -- -- --
WSSpd -- -- -- -- -- -- -- -- -- -- -- -- -- --
Raw TAF
KPIT 030305Z 0303/0406 02005KT P6SM SCT250

Raw METAR
KPIT 030451Z 35003KT 10SM OVC180 22/11 A3005 RMK AO2 SLP174 T02170106 402940200
KPIT 030351Z 02004KT 10SM FEW140 OVC200 22/11 A3004 RMK AO2 SLP171 T02220106
KPIT 030251Z 01005KT 10SM FEW150 OVC200 23/12 A3005 RMK AO2 SLP173 T02280117 51013
KPIT 030151Z 35006KT 10SM FEW055 FEW150 BKN220 23/12 A3004 RMK AO2 SLP170 T02330117

METAR Board
Radar Display
Forecast Discussion
For situational awareness. Not to be used for flight planning purposes.